George Mason, Virginia
Current Conditions -  °F | °C
As of 4:52 AM on Sunday 21 Dec 2014 (Local Time) from KDCA Reporting Station
Overcast Overcast  
Wind Chill: 37°   Ceiling: 7000
Heat Index: 37°   Visibility: 10mi
Dew Point: 24°   Wind: 3mph
Humidity: 59%   Direction: 60°ENE
Pressure: 30.32"   Gusts: NA
Location:  38.8059°N, 77.057°W
Report Text: KDCA 210952Z 06003KT 10SM FEW055 OVC070 03/M04 A3032 RMK AO2 SLP265 T00281044
Loading
Personal Weather Stations






























Interactive Weather Map New forecast layout! Learn more

10-Day Weather Forecast

Advertisements
Track Severe Weather on mobile